Time;durP1;ratioP1;P1;durP2;ratioP2;P2;SDS_P1;SDS_P2;PMS_P1;PMS_P2;Temp;Humidity;BMP_temperature;BMP_pressure;BME280_temperature;BME280_humidity;BME280_pressure;Samples;Min_cycle;Max_cycle;Signal;HPM_P1;HPM_P2
2023/10/10 00:01:03;;;;;;;15.68;9.48;;;17.60;88.90;;;;;;5052779;28;20017;-27
2023/10/10 00:03:31;;;;;;;12.13;8.98;;;17.60;89.00;;;;;;5053024;28;20017;-31
2023/10/10 00:06:06;;;;;;;14.18;9.15;;;17.60;89.00;;;;;;5051266;28;20033;-28
2023/10/10 00:08:36;;;;;;;12.63;9.10;;;17.60;89.00;;;;;;5052456;28;20043;-33
2023/10/10 00:11:14;;;;;;;14.23;9.23;;;17.60;89.00;;;;;;5052601;28;20112;-28
2023/10/10 00:13:52;;;;;;;13.57;9.15;;;17.50;88.90;;;;;;5052772;28;20204;-29
2023/10/10 00:16:55;;;;;;;13.93;9.15;;;17.60;89.00;;;;;;5052459;28;20108;-30
2023/10/10 00:21:56;;;;;;;11.10;9.00;;;17.40;89.10;;;;;;5052611;28;20693;-32
2023/10/10 00:24:31;;;;;;;15.38;9.93;;;17.40;89.20;;;;;;5052428;28;20025;-29
2023/10/10 00:26:59;;;;;;;14.75;9.48;;;17.40;89.90;;;;;;5052619;28;20566;-28
2023/10/10 00:29:26;;;;;;;13.13;9.65;;;17.40;89.40;;;;;;5051999;28;20413;-29
2023/10/10 00:31:58;;;;;;;14.60;10.48;;;17.30;89.30;;;;;;5052555;28;20036;-29
2023/10/10 00:34:24;;;;;;;14.15;9.80;;;17.30;89.40;;;;;;5052100;28;20056;-30
2023/10/10 00:36:54;;;;;;;12.63;9.98;;;17.30;89.50;;;;;;5052019;28;20059;-30
2023/10/10 00:39:30;;;;;;;14.90;10.52;;;17.30;89.50;;;;;;5051785;28;20032;-28
2023/10/10 00:42:03;;;;;;;16.05;10.02;;;17.30;89.60;;;;;;5051787;28;20021;-31
2023/10/10 00:44:29;;;;;;;15.48;10.43;;;17.30;89.60;;;;;;5052259;28;20428;-33
2023/10/10 00:46:57;;;;;;;14.13;11.45;;;17.30;89.60;;;;;;5051845;28;20025;-28
2023/10/10 00:49:31;;;;;;;16.65;10.38;;;17.20;89.60;;;;;;5051753;28;20021;-28
2023/10/10 00:52:02;;;;;;;14.75;10.50;;;17.20;90.10;;;;;;5051608;28;20550;-31
2023/10/10 00:54:31;;;;;;;14.27;10.65;;;17.20;89.60;;;;;;5051647;28;20469;-30
2023/10/10 00:56:59;;;;;;;13.27;10.57;;;17.10;89.60;;;;;;5051882;28;20395;-29
2023/10/10 00:59:34;;;;;;;14.60;10.73;;;17.20;89.70;;;;;;5051536;28;20021;-27
2023/10/10 01:02:04;;;;;;;14.02;10.00;;;17.20;89.60;;;;;;5051220;28;20106;-27
2023/10/10 01:04:39;;;;;;;14.70;10.05;;;17.20;89.60;;;;;;5051658;28;20021;-28
2023/10/10 01:07:08;;;;;;;13.15;10.10;;;17.20;89.50;;;;;;5051564;28;20023;-29
2023/10/10 01:09:39;;;;;;;16.00;10.20;;;17.20;89.50;;;;;;5051473;28;20052;-28
2023/10/10 01:12:05;;;;;;;13.10;10.25;;;17.20;89.60;;;;;;5051952;28;20025;-28
2023/10/10 01:14:31;;;;;;;15.25;10.32;;;17.20;89.60;;;;;;5051502;28;20108;-28
2023/10/10 01:16:58;;;;;;;12.88;10.13;;;17.20;89.60;;;;;;5051480;28;20104;-27
2023/10/10 01:19:29;;;;;;;16.25;10.68;;;17.10;89.60;;;;;;5051152;28;20074;-29
2023/10/10 01:21:59;;;;;;;16.73;10.40;;;17.10;89.60;;;;;;5051504;28;20071;-30
2023/10/10 01:24:30;;;;;;;15.65;11.18;;;17.10;89.60;;;;;;5051216;28;20017;-28
2023/10/10 01:27:03;;;;;;;13.23;10.30;;;17.10;89.60;;;;;;5051359;28;20452;-31
2023/10/10 01:29:39;;;;;;;13.32;10.70;;;17.10;89.60;;;;;;5051089;28;20473;-30
2023/10/10 01:32:05;;;;;;;15.23;11.40;;;17.10;89.60;;;;;;5051329;28;20033;-29
2023/10/10 01:34:31;;;;;;;17.48;11.93;;;17.10;89.60;;;;;;5051225;28;20028;-27
2023/10/10 01:37:07;;;;;;;17.55;10.88;;;17.10;89.60;;;;;;5051322;28;20025;-32
2023/10/10 01:40:16;;;;;;;16.92;10.98;;;17.10;89.70;;;;;;5051064;28;20453;-36
2023/10/10 01:42:54;;;;;;;16.85;11.18;;;17.10;89.70;;;;;;5051633;28;20051;-27
2023/10/10 01:45:21;;;;;;;15.65;10.98;;;17.10;89.70;;;;;;5051198;28;20025;-27
2023/10/10 01:47:56;;;;;;;15.38;11.05;;;17.10;89.70;;;;;;5051037;28;20067;-27
2023/10/10 01:50:30;;;;;;;12.57;11.27;;;17.00;89.60;;;;;;5049835;28;20497;-27
2023/10/10 01:52:56;;;;;;;15.93;10.75;;;17.00;89.70;;;;;;5051923;28;20029;-29
2023/10/10 01:55:26;;;;;;;14.63;10.45;;;16.90;89.70;;;;;;5055082;28;20127;-29
2023/10/10 01:57:57;;;;;;;14.70;9.98;;;16.90;89.80;;;;;;5055101;28;20029;-29
2023/10/10 02:00:26;;;;;;;14.23;11.07;;;16.90;89.80;;;;;;5054822;28;20104;-27
2023/10/10 02:02:53;;;;;;;13.60;10.05;;;16.80;89.80;;;;;;5053685;28;20025;-32
2023/10/10 02:05:32;;;;;;;12.75;9.48;;;16.70;89.70;;;;;;5054986;28;20279;-27
2023/10/10 02:07:58;;;;;;;13.13;10.57;;;16.70;89.70;;;;;;5054808;28;20017;-32
2023/10/10 02:10:30;;;;;;;13.80;10.20;;;16.60;89.70;;;;;;5054702;28;20102;-29
2023/10/10 02:13:04;;;;;;;12.07;9.35;;;16.60;89.80;;;;;;5054843;28;20511;-32
2023/10/10 02:15:35;;;;;;;13.18;10.15;;;16.60;89.80;;;;;;5053403;28;20055;-32
2023/10/10 02:18:04;;;;;;;13.13;10.10;;;16.50;89.80;;;;;;5054779;28;20025;-29
2023/10/10 02:23:08;;;;;;;12.63;9.90;;;16.50;89.80;;;;;;5054734;28;20029;-27
2023/10/10 02:28:10;;;;;;;15.15;10.45;;;16.40;89.70;;;;;;5054751;28;20036;-34
2023/10/10 02:30:38;;;;;;;15.85;10.98;;;16.40;89.80;;;;;;5054353;28;20037;-28
2023/10/10 02:33:30;;;;;;;12.40;10.50;;;16.30;89.70;;;;;;5054574;28;20025;-30
2023/10/10 02:35:57;;;;;;;14.20;10.07;;;16.30;89.70;;;;;;5054502;28;20028;-34
2023/10/10 02:38:25;;;;;;;15.23;10.73;;;16.30;89.70;;;;;;5054104;28;20025;-31
2023/10/10 02:40:55;;;;;;;15.80;10.35;;;16.30;89.70;;;;;;5054200;28;20021;-32
2023/10/10 02:43:45;;;;;;;14.95;11.30;;;16.30;89.70;;;;;;5054254;28;20028;-30
2023/10/10 02:46:17;;;;;;;16.05;11.10;;;16.30;89.70;;;;;;5054084;28;20108;-30
2023/10/10 02:48:53;;;;;;;13.77;10.23;;;16.30;89.70;;;;;;5053882;28;20458;-30
2023/10/10 02:51:20;;;;;;;14.35;10.68;;;16.20;89.70;;;;;;5052581;28;20029;-30
2023/10/10 02:53:46;;;;;;;13.10;10.77;;;16.20;89.70;;;;;;5053867;28;20025;-31
2023/10/10 02:56:17;;;;;;;13.70;10.75;;;16.20;89.70;;;;;;5054066;28;20021;-32
2023/10/10 02:58:43;;;;;;;14.43;10.40;;;16.30;89.70;;;;;;5053776;28;20036;-30
2023/10/10 03:01:19;;;;;;;12.60;10.30;;;16.30;89.60;;;;;;5053878;28;20013;-30
2023/10/10 03:03:45;;;;;;;14.13;10.38;;;16.20;89.50;;;;;;5053317;28;20025;-28
2023/10/10 03:06:10;;;;;;;12.70;10.35;;;16.20;89.50;;;;;;5053719;28;20025;-28
2023/10/10 03:08:48;;;;;;;15.30;10.82;;;16.30;89.50;;;;;;5053714;28;20043;-31
2023/10/10 03:11:35;;;;;;;16.50;11.65;;;16.30;89.50;;;;;;5053885;28;20032;-31
2023/10/10 03:14:07;;;;;;;18.50;12.27;;;16.30;89.40;;;;;;5053503;28;20033;-28
2023/10/10 03:16:44;;;;;;;19.27;12.50;;;16.30;89.50;;;;;;5052363;28;20020;-27
2023/10/10 03:21:44;;;;;;;15.95;12.95;;;16.40;89.40;;;;;;5053844;28;20029;-28
2023/10/10 03:25:07;;;;;;;19.88;13.02;;;16.50;89.50;;;;;;5052006;28;20504;-44
2023/10/10 03:27:12;;;;;;;21.73;14.02;;;16.50;89.50;;;;;;5050389;28;20051;-42
2023/10/10 03:29:46;;;;;;;20.67;13.88;;;16.60;89.50;;;;;;5053221;28;20128;-44
2023/10/10 03:32:26;;;;;;;22.92;13.88;;;16.60;89.40;;;;;;5053551;28;20033;-45
2023/10/10 03:34:56;;;;;;;22.08;14.43;;;16.60;89.40;;;;;;5053644;28;20352;-44
2023/10/10 03:39:57;;;;;;;25.70;15.27;;;16.70;89.40;;;;;;5053365;28;20073;-42
2023/10/10 05:23:49;;;;;;;40.35;18.90;;;16.60;90.10;;;;;;5051380;28;20040;-34
2023/10/10 05:26:15;;;;;;;48.97;20.05;;;16.60;90.10;;;;;;5051506;28;20423;-35
2023/10/10 05:28:45;;;;;;;36.17;19.75;;;16.60;90.10;;;;;;5051150;28;20092;-33
2023/10/10 05:31:12;;;;;;;42.33;20.08;;;16.60;90.10;;;;;;5051478;28;20104;-35
2023/10/10 05:33:37;;;;;;;33.78;19.90;;;16.60;90.10;;;;;;5051805;28;20317;-36
2023/10/10 05:36:06;;;;;;;49.70;20.88;;;16.70;90.10;;;;;;5051428;28;20025;-35
2023/10/10 05:38:35;;;;;;;33.90;18.90;;;16.70;90.10;;;;;;5049911;28;20071;-35
2023/10/10 05:41:03;;;;;;;48.65;20.05;;;16.70;90.20;;;;;;5051366;28;20045;-34
2023/10/10 05:43:33;;;;;;;35.60;19.75;;;16.70;90.20;;;;;;5051415;28;20029;-36
2023/10/10 05:46:00;;;;;;;42.70;20.00;;;16.70;90.20;;;;;;5051354;28;20388;-35
2023/10/10 05:48:26;;;;;;;40.45;19.20;;;16.70;90.10;;;;;;5051212;28;20469;-36
2023/10/10 05:50:53;;;;;;;36.03;20.13;;;16.70;90.20;;;;;;5051167;28;20068;-35
2023/10/10 05:53:20;;;;;;;35.45;19.55;;;16.70;90.20;;;;;;5051197;28;20052;-35
2023/10/10 05:55:53;;;;;;;34.97;18.92;;;16.70;90.20;;;;;;5051142;28;20407;-36
2023/10/10 05:58:20;;;;;;;37.78;19.65;;;16.70;90.20;;;;;;5051238;28;20100;-36
2023/10/10 06:00:48;;;;;;;37.05;18.85;;;16.70;90.20;;;;;;5049671;28;20393;-36
2023/10/10 06:03:16;;;;;;;34.33;20.30;;;16.70;90.20;;;;;;5051267;28;20017;-37
2023/10/10 06:05:44;;;;;;;39.50;20.60;;;16.70;90.20;;;;;;5051170;28;20484;-36
2023/10/10 06:08:10;;;;;;;32.90;20.20;;;16.80;90.20;;;;;;5051130;28;20028;-36
2023/10/10 06:10:36;;;;;;;34.72;21.02;;;16.80;90.20;;;;;;5051689;28;20025;-36
2023/10/10 06:13:06;;;;;;;31.50;19.48;;;16.70;90.20;;;;;;5051350;28;20029;-34
2023/10/10 06:15:35;;;;;;;36.80;21.98;;;16.80;90.30;;;;;;5051295;28;20623;-36
2023/10/10 06:18:08;;;;;;;38.42;21.98;;;16.70;90.20;;;;;;5050992;28;20036;-34
2023/10/10 06:20:40;;;;;;;37.13;22.70;;;16.80;90.30;;;;;;5050744;28;20159;-36
2023/10/10 06:23:07;;;;;;;34.88;22.27;;;16.70;90.30;;;;;;5051124;28;20146;-36
2023/10/10 06:25:32;;;;;;;34.78;22.48;;;16.70;90.30;;;;;;5050790;28;20093;-36
2023/10/10 06:28:00;;;;;;;36.70;22.58;;;16.80;90.30;;;;;;5050678;28;20108;-37
2023/10/10 06:30:26;;;;;;;34.80;21.85;;;16.70;90.20;;;;;;5050701;28;20025;-35
2023/10/10 06:33:07;;;;;;;34.45;23.13;;;16.70;90.20;;;;;;5050948;28;20123;-35
2023/10/10 06:35:36;;;;;;;34.05;21.58;;;16.80;90.30;;;;;;5050990;28;20032;-36
2023/10/10 06:38:02;;;;;;;34.40;22.38;;;16.70;90.20;;;;;;5051045;28;20480;-36
2023/10/10 06:40:29;;;;;;;32.10;20.65;;;16.70;90.20;;;;;;5052334;28;20460;-36
2023/10/10 06:42:56;;;;;;;33.58;20.95;;;16.70;90.20;;;;;;5054452;28;20071;-35
2023/10/10 06:45:34;;;;;;;35.53;22.38;;;16.70;90.20;;;;;;5054611;28;20017;-33
2023/10/10 06:48:01;;;;;;;31.65;20.17;;;16.70;90.20;;;;;;5054538;28;20021;-35
2023/10/10 06:50:31;;;;;;;33.75;22.00;;;16.70;90.20;;;;;;5054165;28;20079;-36
2023/10/10 06:52:57;;;;;;;35.00;22.55;;;16.70;90.20;;;;;;5053948;28;20025;-34
2023/10/10 06:55:24;;;;;;;33.20;21.38;;;16.70;90.20;;;;;;5054223;28;20532;-35
2023/10/10 06:57:59;;;;;;;36.75;21.95;;;16.80;90.30;;;;;;5054401;28;20473;-35
2023/10/10 07:00:45;;;;;;;32.80;21.40;;;16.80;90.20;;;;;;5053981;28;20471;-38
2023/10/10 07:03:18;;;;;;;32.00;21.58;;;16.80;90.10;;;;;;5054187;28;20499;-33
2023/10/10 07:05:44;;;;;;;31.67;20.60;;;16.90;90.10;;;;;;5054178;28;20354;-34
2023/10/10 07:08:13;;;;;;;33.38;22.73;;;16.90;90.10;;;;;;5053865;28;20021;-36
2023/10/10 07:10:42;;;;;;;36.65;23.23;;;16.90;90.00;;;;;;5053714;28;20056;-36
2023/10/10 07:13:12;;;;;;;34.28;22.55;;;16.80;90.00;;;;;;5054085;28;20025;-36
2023/10/10 07:15:39;;;;;;;35.72;23.00;;;16.80;90.00;;;;;;5054067;28;20489;-37
2023/10/10 07:18:09;;;;;;;31.75;22.15;;;16.80;90.00;;;;;;5053974;28;20029;-37
2023/10/10 07:23:23;;;;;;;31.33;20.95;;;16.90;90.00;;;;;;5053842;28;20128;-36
2023/10/10 07:25:59;;;;;;;32.72;21.27;;;16.90;90.00;;;;;;5053631;28;20027;-36
2023/10/10 07:28:26;;;;;;;27.30;19.27;;;16.90;89.90;;;;;;5053149;28;20037;-36
2023/10/10 07:30:56;;;;;;;26.85;20.42;;;16.90;89.80;;;;;;5053330;28;20068;-34
2023/10/10 07:33:29;;;;;;;29.02;20.10;;;16.90;89.70;;;;;;5053454;28;20527;-36
2023/10/10 07:35:56;;;;;;;28.80;20.08;;;16.90;89.60;;;;;;5053563;28;20029;-36
2023/10/10 07:38:28;;;;;;;27.90;19.15;;;16.90;89.50;;;;;;5052654;28;20102;-36
2023/10/10 07:40:54;;;;;;;27.40;18.80;;;16.90;89.40;;;;;;5053591;28;20025;-35
2023/10/10 07:43:26;;;;;;;28.92;19.38;;;16.90;89.40;;;;;;5053219;28;20609;-36
2023/10/10 07:45:54;;;;;;;25.63;18.42;;;16.90;89.20;;;;;;5053396;28;20094;-35
2023/10/10 07:48:39;;;;;;;25.42;18.15;;;16.90;89.80;;;;;;5053322;28;20029;-34
2023/10/10 07:51:08;;;;;;;23.13;17.70;;;16.90;89.10;;;;;;5053007;28;20033;-38
2023/10/10 07:53:44;;;;;;;22.88;16.55;;;16.90;89.00;;;;;;5052669;28;20021;-35
2023/10/10 07:56:10;;;;;;;22.88;17.05;;;16.90;89.00;;;;;;5053295;28;20475;-35
2023/10/10 07:58:56;;;;;;;21.65;16.13;;;16.90;88.80;;;;;;5052993;28;20048;-36
2023/10/10 08:01:23;;;;;;;22.05;16.33;;;16.90;88.80;;;;;;5051552;28;20480;-35
2023/10/10 08:03:49;;;;;;;20.83;15.25;;;16.90;88.80;;;;;;5051679;28;20311;-36
2023/10/10 08:06:22;;;;;;;22.30;15.02;;;17.00;88.70;;;;;;5052910;28;20476;-35
2023/10/10 08:08:56;;;;;;;19.27;14.20;;;17.00;88.50;;;;;;5052825;28;20021;-36
2023/10/10 08:11:35;;;;;;;19.85;14.45;;;17.10;88.40;;;;;;5052895;28;20029;-36
2023/10/10 08:14:05;;;;;;;20.30;13.45;;;17.10;88.20;;;;;;5053031;28;20047;-37
2023/10/10 08:16:33;;;;;;;19.88;14.02;;;17.10;88.10;;;;;;5052879;28;20028;-35
2023/10/10 08:19:04;;;;;;;20.58;14.57;;;17.10;87.90;;;;;;5052394;28;20029;-35
2023/10/10 08:21:38;;;;;;;18.20;13.65;;;17.20;87.80;;;;;;5051041;28;20025;-35
2023/10/10 08:24:07;;;;;;;18.08;12.63;;;17.20;87.60;;;;;;5051297;28;20473;-36
2023/10/10 08:26:39;;;;;;;19.30;12.70;;;17.30;87.50;;;;;;5052346;28;20067;-35
2023/10/10 08:29:08;;;;;;;18.38;12.70;;;17.40;87.30;;;;;;5052134;28;20600;-39
2023/10/10 08:31:39;;;;;;;19.88;13.43;;;17.40;87.20;;;;;;5052364;28;20062;-36
2023/10/10 08:34:08;;;;;;;17.58;12.65;;;17.50;87.10;;;;;;5052120;28;20094;-38
2023/10/10 08:36:34;;;;;;;18.00;12.80;;;17.50;86.90;;;;;;5052426;28;20029;-36
2023/10/10 08:39:17;;;;;;;16.58;12.77;;;17.50;86.70;;;;;;5052283;28;20128;-35
2023/10/10 08:41:44;;;;;;;17.50;12.25;;;17.50;86.50;;;;;;5052078;28;20444;-35
2023/10/10 08:44:14;;;;;;;18.10;12.00;;;17.50;86.50;;;;;;5052098;28;20107;-38
2023/10/10 08:46:41;;;;;;;15.57;11.88;;;17.60;86.40;;;;;;5052025;28;20026;-36
2023/10/10 08:49:07;;;;;;;16.13;11.50;;;17.60;86.20;;;;;;5050539;28;20037;-36
2023/10/10 08:51:34;;;;;;;14.10;11.10;;;17.60;86.10;;;;;;5051793;28;20580;-37
2023/10/10 08:54:01;;;;;;;16.35;11.73;;;17.70;86.00;;;;;;5052199;28;20025;-36
2023/10/10 08:56:33;;;;;;;14.25;11.25;;;17.70;85.90;;;;;;5051271;28;20120;-35
2023/10/10 08:59:01;;;;;;;16.15;11.05;;;17.80;85.80;;;;;;5051737;28;20057;-36
2023/10/10 09:01:33;;;;;;;15.82;11.55;;;17.70;85.40;;;;;;5051561;28;20013;-36
2023/10/10 09:04:00;;;;;;;17.85;10.65;;;17.70;85.30;;;;;;5052132;28;20025;-36
2023/10/10 09:06:35;;;;;;;14.15;10.60;;;17.70;85.30;;;;;;5051672;28;20040;-35
2023/10/10 09:09:15;;;;;;;16.25;10.63;;;17.80;85.20;;;;;;5051982;28;20044;-36
2023/10/10 09:11:46;;;;;;;15.95;10.43;;;17.80;85.00;;;;;;5051303;28;20044;-37
2023/10/10 09:14:13;;;;;;;17.98;11.25;;;17.80;84.80;;;;;;5051821;28;20025;-35
2023/10/10 09:16:41;;;;;;;15.98;11.05;;;17.80;84.70;;;;;;5051762;28;20480;-36
2023/10/10 09:19:08;;;;;;;13.60;10.20;;;17.80;84.60;;;;;;5051154;28;20388;-36
2023/10/10 09:21:50;;;;;;;17.05;9.73;;;17.90;84.40;;;;;;5051849;28;20393;-35
2023/10/10 09:24:28;;;;;;;12.35;10.07;;;17.90;84.30;;;;;;5049921;28;20029;-35
2023/10/10 09:26:59;;;;;;;13.50;10.80;;;17.90;84.10;;;;;;5051216;28;20029;-35
2023/10/10 09:29:42;;;;;;;14.13;9.82;;;18.00;84.00;;;;;;5050887;28;20456;-37
2023/10/10 09:32:08;;;;;;;12.85;9.38;;;18.00;83.70;;;;;;5051576;28;20074;-36
2023/10/10 09:34:40;;;;;;;12.90;9.32;;;18.00;83.70;;;;;;5051260;28;20033;-34
2023/10/10 09:37:10;;;;;;;13.55;9.95;;;18.00;84.20;;;;;;5051160;28;20029;-35
2023/10/10 09:39:37;;;;;;;17.08;9.77;;;18.00;83.40;;;;;;5050984;28;20031;-37
2023/10/10 09:44:56;;;;;;;11.60;8.82;;;18.00;83.20;;;;;;5051199;28;20087;-36
2023/10/10 09:52:57;;;;;;;13.23;9.10;;;18.20;82.90;;;;;;5051494;28;20059;-36
2023/10/10 10:01:04;;;;;;;13.35;9.77;;;18.20;82.40;;;;;;5051298;28;20058;-34
2023/10/10 10:03:31;;;;;;;12.10;8.73;;;18.30;82.40;;;;;;5050771;28;20087;-36
2023/10/10 10:09:36;;;;;;;11.25;8.23;;;18.40;82.30;;;;;;5051207;28;20085;-34
2023/10/10 10:12:33;;;;;;;12.88;9.50;;;18.40;82.00;;;;;;5051170;28;20555;-37
2023/10/10 10:15:20;;;;;;;12.73;9.63;;;18.40;81.80;;;;;;5053872;28;20037;-36
2023/10/10 10:18:11;;;;;;;11.57;9.27;;;18.40;81.70;;;;;;5054599;28;20036;-34
2023/10/10 10:23:27;;;;;;;13.57;9.82;;;18.50;81.50;;;;;;5054962;28;20060;-35
2023/10/10 10:26:10;;;;;;;14.07;9.75;;;18.60;81.40;;;;;;5054723;28;20036;-35
2023/10/10 10:28:37;;;;;;;;;;;18.60;81.20;;;;;;5055026;28;20125;-36
2023/10/10 10:31:16;;;;;;;13.73;9.70;;;18.70;81.20;;;;;;5054943;28;19961;-34
2023/10/10 10:34:06;;;;;;;13.05;9.15;;;18.80;80.90;;;;;;5054548;28;20135;-35
2023/10/10 10:36:50;;;;;;;13.15;9.75;;;18.90;80.80;;;;;;5054692;28;20486;-36
2023/10/10 10:39:23;;;;;;;14.25;9.57;;;18.90;80.60;;;;;;5052993;28;20123;-36
2023/10/10 10:41:55;;;;;;;14.05;9.50;;;19.00;80.60;;;;;;5054483;28;20128;-36
2023/10/10 10:44:45;;;;;;;14.73;9.90;;;19.00;80.30;;;;;;5054430;28;20739;-35
2023/10/10 10:47:37;;;;;;;14.50;9.35;;;19.10;80.10;;;;;;5054448;28;20021;-36
2023/10/10 10:50:29;;;;;;;11.57;8.98;;;19.20;80.00;;;;;;5054155;28;20408;-35
2023/10/10 10:53:00;;;;;;;12.57;9.80;;;19.30;80.00;;;;;;5050794;28;20087;-37
2023/10/10 10:55:29;;;;;;;13.95;10.00;;;19.30;79.60;;;;;;5053827;28;20037;-36
2023/10/10 10:58:08;;;;;;;13.60;9.48;;;19.30;79.50;;;;;;5053022;28;20441;-36
2023/10/10 11:03:35;;;;;;;13.32;10.23;;;19.40;79.00;;;;;;5054094;28;20084;-36
2023/10/10 11:06:14;;;;;;;14.70;9.88;;;19.50;78.90;;;;;;5054229;28;20067;-35
2023/10/10 11:11:27;;;;;;;13.45;9.90;;;19.60;78.70;;;;;;5053903;28;20025;-34
2023/10/10 11:14:09;;;;;;;13.77;10.45;;;19.60;78.40;;;;;;5054211;28;20020;-34
2023/10/10 11:16:38;;;;;;;15.70;10.32;;;19.60;78.30;;;;;;5054217;28;20432;-38
2023/10/10 11:22:00;;;;;;;12.77;8.95;;;19.70;78.00;;;;;;5054160;28;20125;-37
2023/10/10 11:24:29;;;;;;;12.65;8.85;;;19.80;77.90;;;;;;5053319;28;20035;-35
2023/10/10 11:29:29;;;;;;;12.27;8.40;;;19.90;77.60;;;;;;5053412;28;20053;-39
2023/10/10 11:32:07;;;;;;;14.70;9.38;;;20.00;77.50;;;;;;5053380;28;20036;-35
2023/10/10 11:34:42;;;;;;;13.20;8.57;;;20.00;77.40;;;;;;5052084;28;20029;-41
2023/10/10 11:37:23;;;;;;;12.25;8.98;;;20.10;77.30;;;;;;5053817;28;20052;-36
2023/10/10 11:39:59;;;;;;;11.40;8.88;;;20.10;77.00;;;;;;5053199;28;20033;-36
2023/10/10 11:42:33;;;;;;;12.10;9.38;;;20.20;76.90;;;;;;5053623;28;20512;-38
2023/10/10 11:45:07;;;;;;;13.05;8.90;;;20.20;76.60;;;;;;5053605;28;20468;-37
2023/10/10 11:47:42;;;;;;;;;;;20.30;76.60;;;;;;5054035;28;20029;-38
2023/10/10 11:50:09;;;;;;;11.23;7.70;;;20.40;76.80;;;;;;5053268;28;19908;-37
2023/10/10 11:52:48;;;;;;;15.38;9.38;;;20.40;76.70;;;;;;5053445;28;20037;-35
2023/10/10 11:55:17;;;;;;;11.95;9.32;;;20.50;76.60;;;;;;5052860;28;20558;-36
2023/10/10 11:57:44;;;;;;;12.18;8.30;;;20.50;76.30;;;;;;5052995;28;20025;-34
2023/10/10 12:00:11;;;;;;;12.45;9.38;;;20.70;76.30;;;;;;5053408;28;20037;-36
2023/10/10 12:02:39;;;;;;;12.85;8.82;;;20.80;75.80;;;;;;5053227;28;20103;-35
2023/10/10 12:08:05;;;;;;;12.52;7.82;;;21.00;75.50;;;;;;5053174;28;20067;-36
2023/10/10 12:10:52;;;;;;;11.60;8.20;;;21.10;75.20;;;;;;5052621;28;20025;-36
2023/10/10 12:16:07;;;;;;;12.10;8.55;;;21.40;74.90;;;;;;5052840;28;20040;-35
2023/10/10 12:18:43;;;;;;;9.30;7.47;;;21.40;74.60;;;;;;5052505;28;20033;-35
2023/10/10 12:21:10;;;;;;;10.52;7.40;;;21.40;74.50;;;;;;5052931;28;20051;-36
2023/10/10 12:23:36;;;;;;;11.43;8.32;;;21.60;74.30;;;;;;5052726;28;20017;-35
2023/10/10 12:26:03;;;;;;;12.10;7.95;;;21.60;73.90;;;;;;5052476;28;20503;-35
2023/10/10 12:28:28;;;;;;;13.48;7.90;;;21.50;73.80;;;;;;5052432;28;20037;-37
2023/10/10 12:31:00;;;;;;;13.02;7.72;;;21.50;73.70;;;;;;5052750;28;20025;-36
2023/10/10 12:33:27;;;;;;;9.98;7.28;;;21.50;73.70;;;;;;5052604;28;20075;-37
2023/10/10 12:35:53;;;;;;;12.27;7.22;;;21.50;73.70;;;;;;5052569;28;20055;-36
2023/10/10 12:38:22;;;;;;;12.40;7.90;;;21.50;73.50;;;;;;5052019;28;20028;-36
2023/10/10 12:40:51;;;;;;;12.35;8.68;;;21.60;73.20;;;;;;5052079;28;20037;-36
2023/10/10 12:43:23;;;;;;;11.77;7.45;;;21.70;73.10;;;;;;5052143;28;20033;-36
2023/10/10 12:45:54;;;;;;;11.82;7.38;;;21.70;72.90;;;;;;5052115;28;20033;-36
2023/10/10 12:48:20;;;;;;;12.07;8.15;;;21.80;72.80;;;;;;5052057;28;20028;-46
2023/10/10 12:50:47;;;;;;;11.77;7.47;;;21.80;72.40;;;;;;5051786;28;20032;-36
2023/10/10 12:53:19;;;;;;;14.68;7.28;;;21.80;72.30;;;;;;5052086;28;20041;-37
2023/10/10 12:55:49;;;;;;;12.40;8.18;;;21.90;72.30;;;;;;5052168;28;20467;-36
2023/10/10 12:58:22;;;;;;;12.40;7.75;;;22.00;72.10;;;;;;5052234;28;20029;-36
2023/10/10 13:00:52;;;;;;;10.88;6.40;;;22.00;71.90;;;;;;5051677;28;20033;-37
2023/10/10 13:03:18;;;;;;;10.73;7.80;;;22.10;71.90;;;;;;5052170;28;20028;-36
2023/10/10 13:05:47;;;;;;;13.20;8.13;;;22.10;71.60;;;;;;5052070;28;20103;-36
2023/10/10 13:08:15;;;;;;;11.02;7.70;;;22.20;71.60;;;;;;5052112;28;20397;-37
2023/10/10 13:10:41;;;;;;;14.13;8.05;;;22.20;71.50;;;;;;5051606;28;20029;-37
2023/10/10 13:13:07;;;;;;;11.80;7.50;;;22.30;71.20;;;;;;5051906;28;20033;-38
2023/10/10 13:15:47;;;;;;;10.45;6.93;;;22.30;70.80;;;;;;5051970;28;20056;-36
2023/10/10 13:18:19;;;;;;;10.55;6.97;;;22.30;70.70;;;;;;5051899;28;20053;-36
2023/10/10 13:20:53;;;;;;;11.05;6.75;;;22.30;70.60;;;;;;5051348;28;20078;-37
2023/10/10 13:23:20;;;;;;;11.73;6.65;;;22.50;70.60;;;;;;5051451;28;20094;-37
2023/10/10 13:25:49;;;;;;;10.80;7.30;;;22.60;70.50;;;;;;5051212;28;20029;-35
2023/10/10 13:28:20;;;;;;;11.18;6.85;;;22.70;70.00;;;;;;5051298;28;20025;-36
2023/10/10 13:30:47;;;;;;;8.68;5.90;;;22.70;69.50;;;;;;5051167;28;20087;-35
2023/10/10 13:33:14;;;;;;;10.35;6.22;;;22.80;69.40;;;;;;5051888;28;20095;-38
2023/10/10 13:35:39;;;;;;;9.93;5.93;;;22.90;69.30;;;;;;5051410;28;20103;-36
2023/10/10 13:38:07;;;;;;;10.35;5.75;;;22.90;68.70;;;;;;5051546;28;20445;-36
2023/10/10 13:40:48;;;;;;;10.55;5.70;;;23.00;68.60;;;;;;5051445;28;20469;-36
2023/10/10 13:43:18;;;;;;;9.45;5.78;;;23.00;68.50;;;;;;5051332;28;20431;-35
2023/10/10 13:45:45;;;;;;;9.23;6.05;;;23.10;68.30;;;;;;5051297;28;20025;-35
2023/10/10 13:48:13;;;;;;;8.20;6.05;;;23.10;68.00;;;;;;5052635;28;20507;-36
2023/10/10 13:50:44;;;;;;;8.50;5.63;;;23.20;67.80;;;;;;5055112;28;20079;-37
2023/10/10 13:53:12;;;;;;;10.77;6.43;;;23.20;67.60;;;;;;5055283;28;20025;-37
2023/10/10 13:55:38;;;;;;;7.20;5.20;;;23.10;66.90;;;;;;5055415;28;20091;-34
2023/10/10 13:58:12;;;;;;;7.10;5.45;;;23.10;67.00;;;;;;5055099;28;20029;-34
2023/10/10 14:00:55;;;;;;;7.70;5.65;;;23.20;67.00;;;;;;5055125;28;20025;-35
2023/10/10 14:03:31;;;;;;;7.75;5.47;;;23.30;66.60;;;;;;5055123;28;20021;-36
2023/10/10 14:06:00;;;;;;;8.70;5.40;;;23.40;66.10;;;;;;5054999;28;20096;-36
2023/10/10 14:08:26;;;;;;;10.48;6.13;;;23.50;65.90;;;;;;5055007;28;20540;-35
2023/10/10 14:10:54;;;;;;;9.57;5.78;;;23.50;65.40;;;;;;5054878;28;20025;-35
2023/10/10 14:13:20;;;;;;;7.35;5.28;;;23.40;65.40;;;;;;5054743;28;20096;-40
2023/10/10 14:15:56;;;;;;;7.35;5.45;;;23.40;65.50;;;;;;5054920;28;20029;-34
2023/10/10 14:18:30;;;;;;;9.85;5.53;;;23.30;65.50;;;;;;5055330;28;20381;-37
2023/10/10 14:20:56;;;;;;;7.47;5.00;;;23.30;65.90;;;;;;5054606;28;20452;-36
2023/10/10 14:23:24;;;;;;;7.65;5.40;;;23.20;66.00;;;;;;5054736;28;20028;-36
2023/10/10 14:25:51;;;;;;;9.18;5.18;;;23.10;65.80;;;;;;5055193;28;20021;-37
2023/10/10 14:28:18;;;;;;;7.35;5.15;;;23.00;66.00;;;;;;5054371;28;20037;-35
2023/10/10 14:30:50;;;;;;;7.15;5.20;;;22.90;66.10;;;;;;5054477;28;20039;-36
2023/10/10 14:33:17;;;;;;;7.22;4.47;;;22.80;66.20;;;;;;5054797;28;20112;-37
2023/10/10 14:35:44;;;;;;;8.98;5.13;;;22.80;66.40;;;;;;5054711;28;20365;-37
2023/10/10 14:38:14;;;;;;;7.07;4.43;;;22.70;66.40;;;;;;5054689;28;20108;-38
2023/10/10 14:40:41;;;;;;;8.38;4.82;;;22.70;66.50;;;;;;5054163;28;20091;-36
2023/10/10 14:43:07;;;;;;;8.23;4.88;;;22.70;66.50;;;;;;5054395;28;20025;-34
2023/10/10 14:45:34;;;;;;;6.90;4.90;;;22.60;66.60;;;;;;5054448;28;20488;-35
2023/10/10 14:48:04;;;;;;;7.90;5.22;;;22.70;66.80;;;;;;5054613;28;20162;-36
2023/10/10 14:50:36;;;;;;;10.60;4.95;;;22.70;66.90;;;;;;5053774;28;20032;-36
2023/10/10 14:53:08;;;;;;;7.60;4.73;;;22.80;66.90;;;;;;5054135;28;20036;-36
2023/10/10 14:55:44;;;;;;;9.65;4.53;;;22.80;66.70;;;;;;5054095;28;20497;-35
2023/10/10 14:58:12;;;;;;;6.78;4.68;;;23.00;66.70;;;;;;5054252;28;20416;-36
2023/10/10 15:00:40;;;;;;;7.13;4.45;;;23.10;66.60;;;;;;5053242;28;20025;-36
2023/10/10 15:03:12;;;;;;;7.13;4.78;;;23.10;66.50;;;;;;5052560;28;20025;-35
2023/10/10 15:05:51;;;;;;;8.70;5.10;;;23.10;66.40;;;;;;5053990;28;20061;-35
2023/10/10 15:08:21;;;;;;;8.18;4.88;;;23.20;66.30;;;;;;5053911;28;20032;-36
2023/10/10 15:10:53;;;;;;;6.78;4.70;;;23.20;66.20;;;;;;5053883;28;20091;-36
2023/10/10 15:13:18;;;;;;;7.15;4.85;;;23.30;66.20;;;;;;5053991;28;20044;-36
2023/10/10 15:15:45;;;;;;;5.80;3.80;;;23.20;66.10;;;;;;5053988;28;20025;-37
2023/10/10 15:18:18;;;;;;;9.30;4.60;;;23.20;66.10;;;;;;5053782;28;20029;-37
2023/10/10 15:20:46;;;;;;;5.93;4.00;;;23.10;65.50;;;;;;5053527;28;20134;-39
2023/10/10 15:23:20;;;;;;;6.03;4.10;;;23.00;65.40;;;;;;5053720;28;20116;-37
2023/10/10 15:25:56;;;;;;;7.32;4.18;;;23.00;65.10;;;;;;5053586;28;20021;-35
2023/10/10 15:28:23;;;;;;;7.85;4.05;;;23.00;64.90;;;;;;5053422;28;20502;-36